createdAt,value
2023-03-26T00:00:11.594Z,37.50
2023-03-26T00:01:11.454Z,39.30
2023-03-26T00:02:11.489Z,38.20
2023-03-26T00:03:11.592Z,38.80
2023-03-26T00:04:11.418Z,36.30
2023-03-26T00:05:11.480Z,37.30
2023-03-26T00:06:11.413Z,37.20
2023-03-26T00:07:11.385Z,37.00
2023-03-26T00:08:11.442Z,37.20
2023-03-26T00:09:11.373Z,39.20
2023-03-26T00:10:11.389Z,35.40
2023-03-26T00:11:11.346Z,39.00
2023-03-26T00:12:11.420Z,38.00
2023-03-26T00:13:11.353Z,37.20
2023-03-26T00:14:11.354Z,36.10
2023-03-26T00:15:11.339Z,38.00
2023-03-26T00:16:11.319Z,38.80
2023-03-26T00:17:11.313Z,37.50
2023-03-26T00:18:11.282Z,37.70
2023-03-26T00:19:11.284Z,37.00
2023-03-26T00:20:11.288Z,35.40
2023-03-26T00:21:11.248Z,36.20
2023-03-26T00:22:11.247Z,36.60
2023-03-26T00:23:11.224Z,38.70
2023-03-26T00:24:11.198Z,37.10
2023-03-26T00:25:11.215Z,38.90
2023-03-26T00:26:11.260Z,37.00
2023-03-26T00:27:11.207Z,36.90
2023-03-26T00:28:11.189Z,38.30
2023-03-26T00:29:11.165Z,37.30
2023-03-26T00:30:11.136Z,36.80
2023-03-26T00:31:11.140Z,35.80
2023-03-26T00:32:11.135Z,35.50
2023-03-26T00:33:11.184Z,37.90
2023-03-26T00:34:11.114Z,38.10
2023-03-26T00:35:11.103Z,36.10
2023-03-26T00:36:11.187Z,36.40
2023-03-26T00:37:11.067Z,37.40
2023-03-26T00:38:11.119Z,35.50
2023-03-26T00:39:11.057Z,37.20
2023-03-26T00:40:11.066Z,35.90
2023-03-26T00:41:11.041Z,35.90
2023-03-26T00:42:11.030Z,36.10
2023-03-26T00:43:11.030Z,36.20
2023-03-26T00:44:10.998Z,38.20
2023-03-26T00:45:10.977Z,36.70
2023-03-26T00:46:11.038Z,35.40
2023-03-26T00:47:10.978Z,35.90
2023-03-26T00:48:11.044Z,36.80
2023-03-26T00:49:11.284Z,35.70
2023-03-26T00:50:10.919Z,38.30
2023-03-26T00:51:10.980Z,33.10
2023-03-26T00:52:10.963Z,35.60
2023-03-26T00:53:10.900Z,34.60
2023-03-26T00:54:10.881Z,38.20
2023-03-26T00:55:10.915Z,36.40
2023-03-26T00:56:10.909Z,37.40
2023-03-26T00:57:10.959Z,35.60
2023-03-26T00:58:10.853Z,37.40
2023-03-26T00:59:10.840Z,36.90
2023-03-26T01:00:10.859Z,35.40
2023-03-26T01:01:10.862Z,35.70
2023-03-26T01:02:10.861Z,36.30
2023-03-26T01:03:10.936Z,36.10
2023-03-26T01:04:10.857Z,35.00
2023-03-26T01:05:10.938Z,35.50
2023-03-26T01:06:10.781Z,36.50
2023-03-26T01:07:10.782Z,34.60
2023-03-26T01:08:10.762Z,36.00
2023-03-26T01:09:10.732Z,35.30
2023-03-26T01:10:10.714Z,34.90
2023-03-26T01:11:10.698Z,34.90
2023-03-26T01:12:10.692Z,35.50
2023-03-26T01:13:10.684Z,36.50
2023-03-26T01:14:10.732Z,35.90
2023-03-26T01:15:10.661Z,34.40
2023-03-26T01:16:10.669Z,36.30
2023-03-26T01:17:10.669Z,36.20
2023-03-26T01:18:10.635Z,37.60
2023-03-26T01:19:10.623Z,36.70
2023-03-26T01:20:10.613Z,36.90
2023-03-26T01:21:10.601Z,35.00
2023-03-26T01:22:10.618Z,35.30
2023-03-26T01:23:10.606Z,36.30
2023-03-26T01:24:10.583Z,35.90
2023-03-26T01:25:10.586Z,37.60
2023-03-26T01:26:10.567Z,37.20
2023-03-26T01:27:10.590Z,36.20
2023-03-26T01:28:10.534Z,35.80
2023-03-26T01:29:10.543Z,36.40
2023-03-26T01:30:10.571Z,36.10
2023-03-26T01:31:10.501Z,35.90
2023-03-26T01:32:10.524Z,35.70
2023-03-26T01:33:10.559Z,35.30
2023-03-26T01:34:10.540Z,38.90
2023-03-26T01:35:10.459Z,37.70
2023-03-26T01:36:10.486Z,37.80
2023-03-26T01:37:10.526Z,35.70
2023-03-26T01:38:10.489Z,36.20
2023-03-26T01:39:10.442Z,36.90
2023-03-26T01:40:10.390Z,37.50
2023-03-26T01:41:10.410Z,35.80
2023-03-26T01:42:10.443Z,35.70
2023-03-26T01:43:10.371Z,34.80
2023-03-26T01:44:10.415Z,34.10
2023-03-26T01:45:10.347Z,35.20
2023-03-26T01:46:10.356Z,36.70
2023-03-26T01:47:10.358Z,35.80
2023-03-26T01:48:10.281Z,36.80
2023-03-26T01:49:10.353Z,35.80
2023-03-26T01:50:10.308Z,35.20
2023-03-26T01:51:10.290Z,36.60
2023-03-26T01:52:10.324Z,35.50
2023-03-26T01:53:10.321Z,37.60
2023-03-26T01:54:10.260Z,36.20
2023-03-26T01:55:10.235Z,37.20
2023-03-26T01:56:10.220Z,35.10
2023-03-26T01:57:10.253Z,35.00
2023-03-26T01:58:10.229Z,36.10
2023-03-26T01:59:10.240Z,35.30
2023-03-26T02:00:10.164Z,36.80
2023-03-26T02:01:10.171Z,35.10
2023-03-26T02:02:10.220Z,36.30
2023-03-26T02:03:10.269Z,36.60
2023-03-26T02:04:10.129Z,36.90
2023-03-26T02:05:10.155Z,35.20
2023-03-26T02:06:10.109Z,36.10
2023-03-26T02:07:10.083Z,34.70
2023-03-26T02:08:10.101Z,36.50
2023-03-26T02:09:10.154Z,36.10
2023-03-26T02:10:10.113Z,36.20
2023-03-26T02:11:10.059Z,35.20
2023-03-26T02:12:10.045Z,34.90
2023-03-26T02:13:10.073Z,35.70
2023-03-26T02:14:10.054Z,35.50
2023-03-26T02:15:10.023Z,33.70
2023-03-26T02:16:10.170Z,34.10
2023-03-26T02:17:10.001Z,33.70
2023-03-26T02:18:10.222Z,34.80
2023-03-26T02:19:09.984Z,34.70
2023-03-26T02:20:09.999Z,33.00
2023-03-26T02:21:09.956Z,33.60
2023-03-26T02:22:10.035Z,33.00
2023-03-26T02:23:09.946Z,33.70
2023-03-26T02:24:09.927Z,31.80
2023-03-26T02:25:09.901Z,33.70
2023-03-26T02:26:09.898Z,33.60
2023-03-26T02:27:09.913Z,34.00
2023-03-26T02:28:09.849Z,33.40
2023-03-26T02:29:09.947Z,33.40
2023-03-26T02:30:09.832Z,33.50
2023-03-26T02:31:09.922Z,33.30
2023-03-26T02:32:09.820Z,33.10
2023-03-26T02:33:09.918Z,33.20
2023-03-26T02:34:09.768Z,32.50
2023-03-26T02:35:09.812Z,31.70
2023-03-26T02:36:09.800Z,32.60
2023-03-26T02:37:09.808Z,33.10
2023-03-26T02:38:09.749Z,32.60
2023-03-26T02:39:09.742Z,32.00
2023-03-26T02:40:09.814Z,33.20
2023-03-26T02:41:09.807Z,34.60
2023-03-26T02:42:09.741Z,33.70
2023-03-26T02:43:09.731Z,33.00
2023-03-26T02:44:09.673Z,32.40
2023-03-26T02:45:09.697Z,33.20
2023-03-26T02:46:09.786Z,32.70
2023-03-26T02:47:09.669Z,34.70
2023-03-26T02:48:09.686Z,33.50
2023-03-26T02:49:09.617Z,33.90
2023-03-26T02:50:09.611Z,33.50
2023-03-26T02:51:09.730Z,33.70
2023-03-26T02:52:09.627Z,34.50
2023-03-26T02:53:09.647Z,33.00
2023-03-26T02:54:09.579Z,33.90
2023-03-26T02:55:09.553Z,34.20
2023-03-26T02:56:09.551Z,33.20
2023-03-26T02:57:09.610Z,32.20
2023-03-26T02:58:09.553Z,32.40
2023-03-26T02:59:09.511Z,31.70
2023-03-26T03:00:09.516Z,31.90
2023-03-26T03:01:09.541Z,33.60
2023-03-26T03:02:09.522Z,32.50
2023-03-26T03:03:09.546Z,34.10
2023-03-26T03:04:09.483Z,32.00
2023-03-26T03:05:09.487Z,32.50
2023-03-26T03:06:09.457Z,31.90
2023-03-26T03:07:09.434Z,32.20
2023-03-26T03:08:09.438Z,33.00
2023-03-26T03:09:09.537Z,34.00
2023-03-26T03:10:09.401Z,32.80
2023-03-26T03:11:09.400Z,35.00
2023-03-26T03:12:09.368Z,33.10
2023-03-26T03:13:09.369Z,31.10
2023-03-26T03:14:09.378Z,32.60
2023-03-26T03:15:09.366Z,32.20
2023-03-26T03:16:09.342Z,33.00
2023-03-26T03:17:09.380Z,32.60
2023-03-26T03:18:09.324Z,32.00
2023-03-26T03:19:09.976Z,31.80
2023-03-26T03:20:09.303Z,31.20
2023-03-26T03:21:09.314Z,33.30
2023-03-26T03:22:09.312Z,33.50
2023-03-26T03:23:09.241Z,33.30
2023-03-26T03:24:09.242Z,32.70
2023-03-26T03:25:09.285Z,33.90
2023-03-26T03:26:09.229Z,31.50
2023-03-26T03:27:09.221Z,31.30
2023-03-26T03:28:09.234Z,32.00
2023-03-26T03:29:09.235Z,31.60
2023-03-26T03:30:09.184Z,32.20
2023-03-26T03:31:09.247Z,32.20
2023-03-26T03:32:09.380Z,31.20
2023-03-26T03:33:09.157Z,32.40
2023-03-26T03:34:09.168Z,31.70
2023-03-26T03:35:09.184Z,32.20
2023-03-26T03:36:09.149Z,32.00
2023-03-26T03:37:10.124Z,33.30
2023-03-26T03:38:09.138Z,33.50
2023-03-26T03:39:09.125Z,32.90
2023-03-26T03:40:09.094Z,33.10
2023-03-26T03:41:09.052Z,32.20
2023-03-26T03:42:09.086Z,31.80
2023-03-26T03:43:09.291Z,33.00
2023-03-26T03:44:09.042Z,30.70
2023-03-26T03:45:09.033Z,31.80
2023-03-26T03:46:09.256Z,32.10
2023-03-26T03:47:09.020Z,30.70
2023-03-26T03:48:09.095Z,32.20
2023-03-26T03:49:08.978Z,33.60
2023-03-26T03:50:09.000Z,32.20
2023-03-26T03:51:08.959Z,32.90
2023-03-26T03:52:09.241Z,33.30
2023-03-26T03:53:08.936Z,32.10
2023-03-26T03:54:08.946Z,32.30
2023-03-26T03:55:08.924Z,32.00
2023-03-26T03:56:08.959Z,32.80
2023-03-26T03:57:08.935Z,32.80
2023-03-26T03:58:08.879Z,33.20
2023-03-26T03:59:08.896Z,33.20
2023-03-26T04:00:08.898Z,32.10
2023-03-26T04:01:08.831Z,33.10
2023-03-26T04:02:08.850Z,33.60
2023-03-26T04:03:08.961Z,34.20
2023-03-26T04:04:08.954Z,35.20
2023-03-26T04:05:08.949Z,35.10
2023-03-26T04:06:08.798Z,34.10
2023-03-26T04:07:08.770Z,32.20
2023-03-26T04:08:08.811Z,33.60
2023-03-26T04:09:08.847Z,32.40
2023-03-26T04:10:08.794Z,33.90
2023-03-26T04:11:08.792Z,33.90
2023-03-26T04:12:08.928Z,35.60
2023-03-26T04:13:08.714Z,34.60
2023-03-26T04:14:08.753Z,33.00
2023-03-26T04:15:08.708Z,31.90
2023-03-26T04:16:08.720Z,32.90
2023-03-26T04:17:08.750Z,32.20
2023-03-26T04:18:08.690Z,32.20
2023-03-26T04:19:08.678Z,33.30
2023-03-26T04:20:08.684Z,33.20
2023-03-26T04:21:08.788Z,34.40
2023-03-26T04:22:08.659Z,34.20
2023-03-26T04:23:08.641Z,32.20
2023-03-26T04:24:08.608Z,35.10
2023-03-26T04:25:08.601Z,32.30
2023-03-26T04:26:08.581Z,33.50
2023-03-26T04:27:08.554Z,34.00
2023-03-26T04:28:08.574Z,32.30
2023-03-26T04:29:08.547Z,33.70
2023-03-26T04:30:08.588Z,34.00
2023-03-26T04:31:08.522Z,33.10
2023-03-26T04:32:08.558Z,33.70
2023-03-26T04:33:08.541Z,33.90
2023-03-26T04:34:08.543Z,34.50
2023-03-26T04:35:08.466Z,34.30
2023-03-26T04:36:08.538Z,33.20
2023-03-26T04:37:08.458Z,33.10
2023-03-26T04:38:08.458Z,34.30
2023-03-26T04:39:08.420Z,32.70
2023-03-26T04:40:08.428Z,32.10
2023-03-26T04:41:08.410Z,31.30
2023-03-26T04:42:08.418Z,34.00
2023-03-26T04:43:08.447Z,33.00
2023-03-26T04:44:08.373Z,32.40
2023-03-26T04:45:08.353Z,33.60
2023-03-26T04:46:08.368Z,32.10
2023-03-26T04:47:08.410Z,33.60
2023-03-26T04:48:08.348Z,32.90
2023-03-26T04:49:08.340Z,35.50
2023-03-26T04:50:08.331Z,33.00
2023-03-26T04:51:08.318Z,36.90
2023-03-26T04:52:08.294Z,31.00
2023-03-26T04:53:08.452Z,34.30
2023-03-26T04:54:08.324Z,31.70
2023-03-26T04:55:08.270Z,34.30
2023-03-26T04:56:08.314Z,33.90
2023-03-26T04:57:08.297Z,32.90
2023-03-26T04:58:08.251Z,32.20
2023-03-26T04:59:08.265Z,31.80
2023-03-26T05:00:08.269Z,33.50
2023-03-26T05:01:09.925Z,33.70
2023-03-26T05:02:08.188Z,33.20
2023-03-26T05:03:08.202Z,32.30
2023-03-26T05:04:08.270Z,34.70
2023-03-26T05:05:08.168Z,32.20
2023-03-26T05:06:08.158Z,31.10
2023-03-26T05:07:08.128Z,32.40
2023-03-26T05:08:08.133Z,33.50
2023-03-26T05:09:08.097Z,32.20
2023-03-26T05:10:08.107Z,30.90
2023-03-26T05:11:08.066Z,32.90
2023-03-26T05:12:08.073Z,32.90
2023-03-26T05:13:08.111Z,31.10
2023-03-26T05:14:08.039Z,31.80
2023-03-26T05:15:08.063Z,32.90
2023-03-26T05:16:08.059Z,30.90
2023-03-26T05:17:08.039Z,31.50
2023-03-26T05:18:08.052Z,31.60
2023-03-26T05:19:08.016Z,32.20
2023-03-26T05:20:07.985Z,31.10
2023-03-26T05:21:07.966Z,32.70
2023-03-26T05:22:08.006Z,31.10
2023-03-26T05:23:07.960Z,30.70
2023-03-26T05:24:07.934Z,33.10
2023-03-26T05:25:07.978Z,31.30
2023-03-26T05:26:07.914Z,31.00
2023-03-26T05:27:07.921Z,30.80
2023-03-26T05:28:07.975Z,31.80
2023-03-26T05:29:07.910Z,31.50
2023-03-26T05:30:07.932Z,31.20
2023-03-26T05:31:07.883Z,33.90
2023-03-26T05:32:07.861Z,29.90
2023-03-26T05:33:07.910Z,31.00
2023-03-26T05:34:07.842Z,31.30
2023-03-26T05:35:07.856Z,31.20
2023-03-26T05:36:07.818Z,30.60
2023-03-26T05:37:07.835Z,31.60
2023-03-26T05:38:07.944Z,31.60
2023-03-26T05:39:07.789Z,31.00
2023-03-26T05:40:07.757Z,30.90
2023-03-26T05:41:07.786Z,30.40
2023-03-26T05:42:07.874Z,30.90
2023-03-26T05:43:07.713Z,30.80
2023-03-26T05:44:07.776Z,31.20
2023-03-26T05:45:07.691Z,31.90
2023-03-26T05:46:07.784Z,29.20
2023-03-26T05:47:07.733Z,29.90
2023-03-26T05:48:07.769Z,28.90
2023-03-26T05:49:07.651Z,31.20
2023-03-26T05:50:07.669Z,32.70
2023-03-26T05:51:07.745Z,30.30
2023-03-26T05:52:07.662Z,30.90
2023-03-26T05:53:07.677Z,29.80
2023-03-26T05:54:07.638Z,28.90
2023-03-26T05:55:07.595Z,30.70
2023-03-26T05:56:07.626Z,31.50
2023-03-26T05:57:07.653Z,31.10
2023-03-26T05:58:07.594Z,28.20
2023-03-26T05:59:07.581Z,31.80
2023-03-26T06:00:07.649Z,29.40
2023-03-26T06:01:07.527Z,29.20
2023-03-26T06:02:07.610Z,30.40
2023-03-26T06:03:07.689Z,29.50
2023-03-26T06:04:07.567Z,29.70
2023-03-26T06:05:07.593Z,30.10
2023-03-26T06:06:07.471Z,29.00
2023-03-26T06:07:07.578Z,29.80
2023-03-26T06:08:07.490Z,29.10
2023-03-26T06:09:07.461Z,29.20
2023-03-26T06:10:07.444Z,29.40
2023-03-26T06:11:07.440Z,29.40
2023-03-26T06:12:07.408Z,30.60
2023-03-26T06:13:07.391Z,29.60
2023-03-26T06:14:07.441Z,31.00
2023-03-26T06:15:07.394Z,31.00
2023-03-26T06:16:07.416Z,29.90
2023-03-26T06:17:07.387Z,27.10
2023-03-26T06:18:07.404Z,28.10
2023-03-26T06:19:07.404Z,28.50
2023-03-26T06:20:09.227Z,27.70
2023-03-26T06:21:07.313Z,28.30
2023-03-26T06:22:07.339Z,28.30
2023-03-26T06:23:07.304Z,28.90
2023-03-26T06:24:07.342Z,27.90
2023-03-26T06:25:07.298Z,27.50
2023-03-26T06:26:07.311Z,27.30
2023-03-26T06:27:07.262Z,28.80
2023-03-26T06:28:07.251Z,28.80
2023-03-26T06:29:07.241Z,28.00
2023-03-26T06:30:07.242Z,28.10
2023-03-26T06:31:07.320Z,26.80
2023-03-26T06:32:19.129Z,28.00
2023-03-26T06:33:08.177Z,27.60
2023-03-26T06:34:07.207Z,28.90
2023-03-26T06:35:07.154Z,29.20
2023-03-26T06:36:07.342Z,29.40
2023-03-26T06:37:07.148Z,27.80
2023-03-26T06:38:07.164Z,27.40
2023-03-26T06:39:07.682Z,27.50
2023-03-26T06:40:07.119Z,27.20
2023-03-26T06:41:07.180Z,27.30
2023-03-26T06:42:07.103Z,29.50
2023-03-26T06:43:10.643Z,28.00
2023-03-26T06:44:07.074Z,28.10
2023-03-26T06:45:07.050Z,27.90
2023-03-26T06:46:07.151Z,27.40
2023-03-26T06:47:07.088Z,29.00
2023-03-26T06:48:07.072Z,27.90
2023-03-26T06:49:07.135Z,29.50
2023-03-26T06:50:06.991Z,27.60
2023-03-26T06:51:07.012Z,28.60
2023-03-26T06:52:06.963Z,29.50
2023-03-26T06:53:06.969Z,28.00
2023-03-26T06:54:06.978Z,27.00
2023-03-26T06:55:06.942Z,27.00
2023-03-26T06:56:09.072Z,29.50
2023-03-26T06:57:06.989Z,29.50
2023-03-26T06:58:06.904Z,29.60
2023-03-26T06:59:06.902Z,27.60
2023-03-26T07:00:06.955Z,28.00
2023-03-26T07:01:06.902Z,28.00
2023-03-26T07:02:06.864Z,28.80
2023-03-26T07:03:06.899Z,28.60
2023-03-26T07:04:06.951Z,32.80
2023-03-26T07:05:06.832Z,31.50
2023-03-26T07:06:06.843Z,29.90
2023-03-26T07:07:06.833Z,28.30
2023-03-26T07:08:06.827Z,28.20
2023-03-26T07:09:06.866Z,28.40
2023-03-26T07:10:06.787Z,27.90
2023-03-26T07:11:06.795Z,27.90
2023-03-26T07:12:06.786Z,28.80
2023-03-26T07:13:06.773Z,28.30
2023-03-26T07:14:06.726Z,28.80
2023-03-26T07:15:06.756Z,28.60
2023-03-26T07:16:06.739Z,28.20
2023-03-26T07:17:06.695Z,28.80
2023-03-26T07:18:06.749Z,28.80
2023-03-26T07:19:06.702Z,27.30
2023-03-26T07:20:06.726Z,28.70
2023-03-26T07:21:06.668Z,28.80
2023-03-26T07:22:06.704Z,27.80
2023-03-26T07:23:06.705Z,29.30
2023-03-26T07:24:06.650Z,27.60
2023-03-26T07:25:06.652Z,28.50
2023-03-26T07:26:06.618Z,28.00
2023-03-26T07:27:06.641Z,28.30
2023-03-26T07:28:06.610Z,28.50
2023-03-26T07:29:06.589Z,28.70
2023-03-26T07:30:06.576Z,28.70
2023-03-26T07:31:06.589Z,29.30
2023-03-26T07:32:06.648Z,28.20
2023-03-26T07:33:06.601Z,29.10
2023-03-26T07:34:06.578Z,28.70
2023-03-26T07:35:06.518Z,29.40
2023-03-26T07:36:06.556Z,28.90
2023-03-26T07:37:06.522Z,27.80
2023-03-26T07:38:06.604Z,27.80
2023-03-26T07:39:06.565Z,28.20
2023-03-26T07:40:06.546Z,28.50
2023-03-26T07:41:06.690Z,28.10
2023-03-26T07:42:06.491Z,28.20
2023-03-26T07:43:06.481Z,28.10
2023-03-26T07:44:06.492Z,27.10
2023-03-26T07:45:06.445Z,28.50
2023-03-26T07:46:06.538Z,28.80
2023-03-26T07:47:06.516Z,29.60
2023-03-26T07:48:06.368Z,30.30
2023-03-26T07:49:06.384Z,29.50
2023-03-26T07:50:06.411Z,29.60
2023-03-26T07:51:06.387Z,28.30
2023-03-26T07:52:06.346Z,28.70
2023-03-26T07:53:06.345Z,30.00
2023-03-26T07:54:06.442Z,29.80
2023-03-26T07:55:06.377Z,29.90
2023-03-26T07:56:06.370Z,29.10
2023-03-26T07:57:06.372Z,29.70
2023-03-26T07:58:06.328Z,30.10
2023-03-26T07:59:06.278Z,29.40
2023-03-26T08:00:06.250Z,28.90
2023-03-26T08:01:06.229Z,31.10
2023-03-26T08:02:06.358Z,29.50
2023-03-26T08:03:06.354Z,31.60
2023-03-26T08:04:24.351Z,30.40
2023-03-26T08:05:07.228Z,29.50
2023-03-26T08:06:06.183Z,30.20
2023-03-26T08:07:06.212Z,30.10
2023-03-26T08:08:06.178Z,31.60
2023-03-26T08:09:06.206Z,31.80
2023-03-26T08:10:06.145Z,30.70
2023-03-26T08:11:06.116Z,31.40
2023-03-26T08:12:06.307Z,32.00
2023-03-26T08:13:06.126Z,30.10
2023-03-26T08:14:06.093Z,31.30
2023-03-26T08:15:06.089Z,31.20
2023-03-26T08:16:06.086Z,31.70
2023-03-26T08:17:06.044Z,30.30
2023-03-26T08:18:06.130Z,30.90
2023-03-26T08:19:06.146Z,30.90
2023-03-26T08:20:06.016Z,29.60
2023-03-26T08:21:06.084Z,32.00
2023-03-26T08:22:06.014Z,30.40
2023-03-26T08:23:06.050Z,32.10
2023-03-26T08:24:05.989Z,31.60
2023-03-26T08:25:05.990Z,30.90
2023-03-26T08:26:05.992Z,30.10
2023-03-26T08:27:05.949Z,29.90
2023-03-26T08:28:05.921Z,30.00
2023-03-26T08:29:05.991Z,29.50
2023-03-26T08:30:05.920Z,31.70
2023-03-26T08:31:05.978Z,31.60
2023-03-26T08:32:05.958Z,30.50
2023-03-26T08:33:05.997Z,31.20
2023-03-26T08:34:05.918Z,29.60
2023-03-26T08:35:05.865Z,30.10
2023-03-26T08:36:06.028Z,30.20
2023-03-26T08:37:05.840Z,30.30
2023-03-26T08:38:05.819Z,30.30
2023-03-26T08:39:05.831Z,31.80
2023-03-26T08:40:05.797Z,31.40
2023-03-26T08:41:05.891Z,31.60
2023-03-26T08:42:05.794Z,31.50
2023-03-26T08:43:05.814Z,31.50
2023-03-26T08:44:05.759Z,30.30
2023-03-26T08:45:05.851Z,31.00
2023-03-26T08:46:05.820Z,30.10
2023-03-26T08:47:05.745Z,31.50
2023-03-26T08:48:05.774Z,31.30
2023-03-26T08:49:05.716Z,30.10
2023-03-26T08:50:05.770Z,31.40
2023-03-26T08:51:05.700Z,31.40
2023-03-26T08:52:05.679Z,32.00
2023-03-26T08:53:05.673Z,32.80
2023-03-26T08:54:05.682Z,30.90
2023-03-26T08:55:05.690Z,32.00
2023-03-26T08:56:05.649Z,31.20
2023-03-26T08:57:05.651Z,31.20
2023-03-26T08:58:05.614Z,32.80
2023-03-26T08:59:05.645Z,31.90
2023-03-26T09:00:05.593Z,31.40
2023-03-26T09:01:05.564Z,32.50
2023-03-26T09:02:05.603Z,31.50
2023-03-26T09:03:05.675Z,31.40
2023-03-26T09:04:05.600Z,29.80
2023-03-26T09:05:05.528Z,31.90
2023-03-26T09:06:05.502Z,33.60
2023-03-26T09:07:05.502Z,31.10
2023-03-26T09:08:05.525Z,33.60
2023-03-26T09:09:05.554Z,30.90
2023-03-26T09:10:05.494Z,32.40
2023-03-26T09:11:05.488Z,32.20
2023-03-26T09:12:05.474Z,32.30
2023-03-26T09:13:05.469Z,32.60
2023-03-26T09:14:05.440Z,33.40
2023-03-26T09:15:05.462Z,32.40
2023-03-26T09:16:05.490Z,32.60
2023-03-26T09:17:05.417Z,30.40
2023-03-26T09:18:05.404Z,31.80
2023-03-26T09:19:05.421Z,31.80
2023-03-26T09:20:05.341Z,31.10
2023-03-26T09:21:05.364Z,33.00
2023-03-26T09:22:05.356Z,32.30
2023-03-26T09:23:05.370Z,31.10
2023-03-26T09:24:05.351Z,31.50
2023-03-26T09:25:05.322Z,30.90
2023-03-26T09:26:05.314Z,30.90
2023-03-26T09:27:05.298Z,31.40
2023-03-26T09:28:05.307Z,32.90
2023-03-26T09:29:05.313Z,31.00
2023-03-26T09:30:05.432Z,32.20
2023-03-26T09:31:05.331Z,32.20
2023-03-26T09:32:05.238Z,32.30
2023-03-26T09:33:05.285Z,31.70
2023-03-26T09:34:05.308Z,32.20
2023-03-26T09:35:05.246Z,32.40
2023-03-26T09:36:05.237Z,33.50
2023-03-26T09:37:05.221Z,32.90
2023-03-26T09:38:05.161Z,32.50
2023-03-26T09:39:05.179Z,32.00
2023-03-26T09:40:05.179Z,32.00
2023-03-26T09:41:05.169Z,31.40
2023-03-26T09:42:05.159Z,32.70
2023-03-26T09:43:05.117Z,32.50
2023-03-26T09:44:05.219Z,33.60
2023-03-26T09:45:05.126Z,32.10
2023-03-26T09:46:05.171Z,32.30
2023-03-26T09:47:05.093Z,32.10
2023-03-26T09:48:05.066Z,31.40
2023-03-26T09:49:05.065Z,32.50
2023-03-26T09:50:05.081Z,32.50
2023-03-26T09:51:05.055Z,32.10
2023-03-26T09:52:05.061Z,31.40
2023-03-26T09:53:05.028Z,29.90
2023-03-26T09:54:04.983Z,30.40
2023-03-26T09:55:04.977Z,29.70
2023-03-26T09:56:05.027Z,29.00
2023-03-26T09:57:05.042Z,31.40
2023-03-26T09:58:04.988Z,30.00
2023-03-26T09:59:04.933Z,29.70
2023-03-26T10:00:04.937Z,31.20
2023-03-26T10:01:04.973Z,30.30
2023-03-26T10:02:04.906Z,29.80
2023-03-26T10:03:05.042Z,30.70
2023-03-26T10:04:04.914Z,29.30
2023-03-26T10:05:04.957Z,30.40
2023-03-26T10:06:04.950Z,30.20
2023-03-26T10:07:04.864Z,29.20
2023-03-26T10:08:04.875Z,29.90
2023-03-26T10:09:04.873Z,29.20
2023-03-26T10:10:04.832Z,29.50
2023-03-26T10:11:04.815Z,29.00
2023-03-26T10:12:04.820Z,30.10
2023-03-26T10:13:14.015Z,29.50
2023-03-26T10:14:05.878Z,30.50
2023-03-26T10:15:04.877Z,29.80
2023-03-26T10:16:04.767Z,29.20
2023-03-26T10:17:04.783Z,30.60
2023-03-26T10:18:04.793Z,29.40
2023-03-26T10:19:05.766Z,31.70
2023-03-26T10:20:04.737Z,30.90
2023-03-26T10:21:04.710Z,31.30
2023-03-26T10:22:04.718Z,30.70
2023-03-26T10:23:04.717Z,30.90
2023-03-26T10:24:04.671Z,29.90
2023-03-26T10:25:04.732Z,31.60
2023-03-26T10:26:04.665Z,32.20
2023-03-26T10:27:10.181Z,32.00
2023-03-26T10:28:05.705Z,32.80
2023-03-26T10:29:04.625Z,31.90
2023-03-26T10:30:04.620Z,30.50
2023-03-26T10:31:04.655Z,31.80
2023-03-26T10:32:04.573Z,31.00
2023-03-26T10:33:04.632Z,32.10
2023-03-26T10:34:04.545Z,32.40
2023-03-26T10:35:04.541Z,32.30
2023-03-26T10:36:04.578Z,32.40
2023-03-26T10:37:04.532Z,31.30
2023-03-26T10:38:04.517Z,32.20
2023-03-26T10:39:04.571Z,31.30
2023-03-26T10:40:04.550Z,31.30
2023-03-26T10:41:04.499Z,31.80
2023-03-26T10:42:04.534Z,32.40
2023-03-26T10:43:04.465Z,32.60
2023-03-26T10:44:08.377Z,31.50
2023-03-26T10:45:06.392Z,32.10
2023-03-26T10:46:04.696Z,31.60
2023-03-26T10:47:04.546Z,31.50
2023-03-26T10:48:04.478Z,32.70
2023-03-26T10:49:04.484Z,31.10
2023-03-26T10:50:04.476Z,31.10
2023-03-26T10:51:04.465Z,31.10
2023-03-26T10:52:04.342Z,30.30
2023-03-26T10:53:04.367Z,31.50
2023-03-26T10:54:04.325Z,30.90
2023-03-26T10:55:04.318Z,32.90
2023-03-26T10:56:04.345Z,33.30
2023-03-26T10:57:04.334Z,31.20
2023-03-26T10:58:04.276Z,31.10
2023-03-26T10:59:04.308Z,31.20
2023-03-26T11:00:04.274Z,30.70
2023-03-26T11:01:06.086Z,31.90
2023-03-26T11:02:04.272Z,32.50
2023-03-26T11:03:04.304Z,30.40
2023-03-26T11:04:04.226Z,31.30
2023-03-26T11:05:04.265Z,31.40
2023-03-26T11:06:04.210Z,31.50
2023-03-26T11:07:05.118Z,32.30
2023-03-26T11:08:04.243Z,31.50
2023-03-26T11:09:04.178Z,30.60
2023-03-26T11:10:04.180Z,32.90
2023-03-26T11:11:04.161Z,31.80
2023-03-26T11:12:25.694Z,31.20
2023-03-26T11:13:05.209Z,31.70
2023-03-26T11:14:04.112Z,33.00
2023-03-26T11:15:04.113Z,32.30
2023-03-26T11:16:04.162Z,31.40
2023-03-26T11:17:04.079Z,30.10
2023-03-26T11:18:04.099Z,32.40
2023-03-26T11:19:05.679Z,30.80
2023-03-26T11:20:04.055Z,29.00
2023-03-26T11:21:18.873Z,30.30
2023-03-26T11:22:05.723Z,33.10
2023-03-26T11:23:04.080Z,33.90
2023-03-26T11:24:04.932Z,36.30
2023-03-26T11:25:05.568Z,35.50
2023-03-26T11:26:04.050Z,34.80
2023-03-26T11:27:15.354Z,35.40
2023-03-26T11:28:05.028Z,35.20
2023-03-26T11:29:31.451Z,34.10
2023-03-26T11:30:04.994Z,35.00
2023-03-26T11:31:04.159Z,34.20
2023-03-26T11:32:03.949Z,33.20
2023-03-26T11:33:03.981Z,35.10
2023-03-26T11:34:03.935Z,34.90
2023-03-26T11:35:03.888Z,34.40
2023-03-26T11:36:03.934Z,36.40
2023-03-26T11:37:03.917Z,34.70
2023-03-26T11:38:03.875Z,35.70
2023-03-26T11:39:03.868Z,35.30
2023-03-26T11:40:03.850Z,36.00
2023-03-26T11:41:03.853Z,36.30
2023-03-26T11:42:03.864Z,35.10
2023-03-26T11:43:03.825Z,35.30
2023-03-26T11:44:03.819Z,36.60
2023-03-26T11:45:03.794Z,36.30
2023-03-26T11:46:03.844Z,39.40
2023-03-26T11:47:03.794Z,38.00
2023-03-26T11:48:03.804Z,37.80
2023-03-26T11:49:03.761Z,35.20
2023-03-26T11:50:03.740Z,35.50
2023-03-26T11:51:03.787Z,37.50
2023-03-26T11:52:03.725Z,36.60
2023-03-26T11:53:03.730Z,37.70
2023-03-26T11:54:03.681Z,37.20
2023-03-26T11:55:03.682Z,36.00
2023-03-26T11:56:03.709Z,36.20
2023-03-26T11:57:04.777Z,37.50
2023-03-26T11:58:03.674Z,37.20
2023-03-26T11:59:03.651Z,37.50
2023-03-26T12:00:03.614Z,36.00
2023-03-26T12:01:03.616Z,37.60
2023-03-26T12:02:03.687Z,36.20
2023-03-26T12:03:03.676Z,35.10
2023-03-26T12:04:03.630Z,33.20
2023-03-26T12:05:03.560Z,35.50
2023-03-26T12:06:03.660Z,34.50
2023-03-26T12:07:03.565Z,35.20
2023-03-26T12:08:03.570Z,34.30
2023-03-26T12:09:03.546Z,35.30
2023-03-26T12:10:18.861Z,36.10
2023-03-26T12:11:04.515Z,33.90
2023-03-26T12:12:03.892Z,35.70
2023-03-26T12:13:03.523Z,35.30
2023-03-26T12:14:04.060Z,34.90
2023-03-26T12:15:03.477Z,35.10
2023-03-26T12:16:03.944Z,34.30
2023-03-26T12:17:03.458Z,33.60
2023-03-26T12:18:03.580Z,34.40
2023-03-26T12:19:03.445Z,34.20
2023-03-26T12:20:03.441Z,35.60
2023-03-26T12:21:03.431Z,34.60
2023-03-26T12:22:03.894Z,35.30
2023-03-26T12:23:03.420Z,32.50
2023-03-26T12:24:03.410Z,31.80
2023-03-26T12:25:03.384Z,32.70
2023-03-26T12:26:03.375Z,33.90
2023-03-26T12:27:03.676Z,34.30
2023-03-26T12:28:03.622Z,36.20
2023-03-26T12:29:03.325Z,36.20
2023-03-26T12:30:03.315Z,35.30
2023-03-26T12:31:03.325Z,34.30
2023-03-26T12:32:03.423Z,34.20
2023-03-26T12:33:03.413Z,35.00
2023-03-26T12:34:03.257Z,34.30
2023-03-26T12:35:03.257Z,33.70
2023-03-26T12:36:03.475Z,34.80
2023-03-26T12:37:03.227Z,33.10
2023-03-26T12:38:03.305Z,32.00
2023-03-26T12:39:16.906Z,33.20
2023-03-26T12:40:08.955Z,33.70
2023-03-26T12:41:04.218Z,34.20
2023-03-26T12:43:19.754Z,32.90
2023-03-26T12:44:50.229Z,33.30
2023-03-26T12:44:56.099Z,33.60
2023-03-26T12:45:04.115Z,34.50
2023-03-26T12:47:54.335Z,33.80
2023-03-26T12:47:59.993Z,34.20
2023-03-26T12:48:04.591Z,34.10
2023-03-26T12:49:03.239Z,34.70
2023-03-26T12:50:03.093Z,33.30
2023-03-26T12:51:03.134Z,33.60
2023-03-26T12:52:03.142Z,33.80